Time;durP1;ratioP1;P1;durP2;ratioP2;P2;SDS_P1;SDS_P2;PMS_P1;PMS_P2;Temp;Humidity;BMP_temperature;BMP_pressure;BME280_temperature;BME280_humidity;BME280_pressure;Samples;Min_cycle;Max_cycle;Signal;HPM_P1;HPM_P2
2021/12/15 00:01:25;;;;;;;96.00;36.05;;;;;;;;;;5112549;28;20493;-71
2021/12/15 00:03:51;;;;;;;94.88;36.28;;;;;;;;;;5111322;28;20043;-71
2021/12/15 00:06:19;;;;;;;90.47;34.47;;;;;;;;;;5105758;28;20032;-70
2021/12/15 00:08:47;;;;;;;102.20;35.58;;;;;;;;;;5111007;28;20536;-71
2021/12/15 00:11:13;;;;;;;103.97;37.33;;;;;;;;;;5114122;28;20070;-71
2021/12/15 00:13:40;;;;;;;98.97;37.55;;;;;;;;;;5100160;28;20040;-71
2021/12/15 00:16:08;;;;;;;111.95;38.33;;;;;;;;;;5114200;28;20066;-71
2021/12/15 00:18:34;;;;;;;111.03;40.92;;;;;;;;;;5114145;28;20172;-71
2021/12/15 00:21:01;;;;;;;88.05;34.00;;;;;;;;;;5113942;28;20035;-71
2021/12/15 00:23:27;;;;;;;97.20;35.05;;;;;;;;;;5112996;28;20566;-72
2021/12/15 00:25:53;;;;;;;95.60;35.83;;;;;;;;;;5109997;28;20067;-71
2021/12/15 00:28:19;;;;;;;98.07;36.67;;;;;;;;;;5114156;28;20411;-71
2021/12/15 00:30:45;;;;;;;80.93;30.17;;;;;;;;;;5113674;28;20035;-71
2021/12/15 00:33:12;;;;;;;111.88;37.10;;;;;;;;;;5113527;28;20043;-72
2021/12/15 00:35:38;;;;;;;114.47;37.67;;;;;;;;;;5113791;28;20397;-71
2021/12/15 00:38:05;;;;;;;109.00;36.42;;;;;;;;;;5113038;28;20035;-72
2021/12/15 00:40:31;;;;;;;103.75;36.85;;;;;;;;;;5113158;28;20450;-72
2021/12/15 00:42:58;;;;;;;109.03;36.05;;;;;;;;;;5113558;28;20036;-71
2021/12/15 00:45:24;;;;;;;104.30;35.35;;;;;;;;;;5113094;28;20054;-72
2021/12/15 00:47:50;;;;;;;104.25;35.83;;;;;;;;;;5107124;28;20036;-71
2021/12/15 00:50:17;;;;;;;104.53;35.65;;;;;;;;;;5107901;28;20532;-72
2021/12/15 00:52:44;;;;;;;94.90;33.22;;;;;;;;;;5097714;28;20023;-72
2021/12/15 00:55:11;;;;;;;108.38;35.45;;;;;;;;;;5112754;28;20492;-72
2021/12/15 00:57:37;;;;;;;107.13;34.42;;;;;;;;;;5113406;28;20129;-72
2021/12/15 01:00:08;;;;;;;101.53;34.85;;;;;;;;;;5100810;28;20149;-72
2021/12/15 01:02:34;;;;;;;102.80;33.85;;;;;;;;;;5113110;28;20464;-72
2021/12/15 01:05:00;;;;;;;90.40;32.53;;;;;;;;;;5113148;28;20055;-71
2021/12/15 01:07:26;;;;;;;112.05;35.03;;;;;;;;;;5112364;28;20113;-72
2021/12/15 01:09:57;;;;;;;98.82;31.92;;;;;;;;;;5104913;28;20043;-72
2021/12/15 01:12:49;;;;;;;107.18;34.22;;;;;;;;;;5112811;28;20397;-72
2021/12/15 01:20:45;;;;;;;104.97;32.17;;;;;;;;;;5110860;28;20560;-72
2021/12/15 01:23:13;;;;;;;102.28;34.30;;;;;;;;;;5102915;28;20482;-72
2021/12/15 01:25:44;;;;;;;84.55;31.33;;;;;;;;;;5107912;28;20377;-72
2021/12/15 01:28:10;;;;;;;104.35;33.65;;;;;;;;;;5097667;28;20174;-72
2021/12/15 01:30:38;;;;;;;98.43;32.40;;;;;;;;;;5109376;28;20050;-72
2021/12/15 01:33:04;;;;;;;91.75;32.28;;;;;;;;;;5112753;28;20308;-72
2021/12/15 01:35:31;;;;;;;108.15;33.75;;;;;;;;;;5111855;28;20036;-72
2021/12/15 01:37:58;;;;;;;107.07;33.72;;;;;;;;;;5106231;28;20031;-72
2021/12/15 01:40:37;;;;;;;108.18;34.75;;;;;;;;;;5130013;27;20428;-71
2021/12/15 01:43:14;;;;;;;106.25;32.55;;;;;;;;;;5130084;27;20130;-70
2021/12/15 01:48:25;;;;;;;102.28;32.33;;;;;;;;;;5111319;28;20119;-71
2021/12/15 01:50:51;;;;;;;111.68;33.17;;;;;;;;;;5109438;28;20524;-71
2021/12/15 01:53:18;;;;;;;101.70;33.60;;;;;;;;;;5119443;28;20074;-71
2021/12/15 01:55:44;;;;;;;116.07;33.78;;;;;;;;;;5120437;27;20031;-71
2021/12/15 01:58:10;;;;;;;119.22;33.88;;;;;;;;;;5113097;28;20063;-71
2021/12/15 02:00:49;;;;;;;115.78;34.08;;;;;;;;;;5115299;27;20078;-71
2021/12/15 02:03:15;;;;;;;110.93;31.80;;;;;;;;;;5120774;28;20163;-71
2021/12/15 02:05:42;;;;;;;100.38;31.38;;;;;;;;;;5128321;27;20091;-71
2021/12/15 02:08:08;;;;;;;91.25;29.58;;;;;;;;;;5119387;27;20031;-71
2021/12/15 02:10:36;;;;;;;94.60;30.75;;;;;;;;;;5108677;28;20046;-71
2021/12/15 02:13:04;;;;;;;98.68;30.50;;;;;;;;;;5109816;28;20114;-71
2021/12/15 02:15:32;;;;;;;101.85;30.17;;;;;;;;;;5126272;28;20163;-71
2021/12/15 02:17:58;;;;;;;99.80;30.23;;;;;;;;;;5127466;27;20035;-71
2021/12/15 02:20:28;;;;;;;97.40;29.63;;;;;;;;;;5116102;27;20099;-72
2021/12/15 02:22:54;;;;;;;95.63;29.83;;;;;;;;;;5128270;27;20493;-71
2021/12/15 02:25:20;;;;;;;102.15;29.30;;;;;;;;;;5112293;27;20055;-71
2021/12/15 02:27:46;;;;;;;89.22;28.50;;;;;;;;;;5115240;28;20031;-71
2021/12/15 02:30:41;;;;;;;85.43;28.25;;;;;;;;;;5126282;27;20043;-71
2021/12/15 02:38:27;;;;;;;88.60;28.00;;;;;;;;;;5108210;28;20130;-71
2021/12/15 02:40:53;;;;;;;87.70;27.02;;;;;;;;;;5107999;28;20512;-71
2021/12/15 02:43:19;;;;;;;86.18;28.15;;;;;;;;;;5123309;28;20035;-71
2021/12/15 02:45:45;;;;;;;86.07;28.00;;;;;;;;;;5114203;28;20034;-70
2021/12/15 02:48:11;;;;;;;89.60;28.48;;;;;;;;;;5111644;27;20389;-71
2021/12/15 02:50:37;;;;;;;85.90;28.65;;;;;;;;;;5101513;28;20040;-71
2021/12/15 02:53:04;;;;;;;86.25;27.77;;;;;;;;;;5104608;28;20416;-71
2021/12/15 02:55:31;;;;;;;82.18;26.38;;;;;;;;;;5113580;28;20067;-71
2021/12/15 02:57:57;;;;;;;85.70;27.50;;;;;;;;;;5114093;28;20051;-71
2021/12/15 03:00:29;;;;;;;97.10;29.08;;;;;;;;;;5093154;28;20044;-70
2021/12/15 03:05:54;;;;;;;92.00;28.15;;;;;;;;;;5097421;22;20049;-64
2021/12/15 03:08:25;;;;;;;91.53;30.05;;;;;;;;;;5071618;28;20048;-64
2021/12/15 03:16:23;;;;;;;97.25;30.40;;;;;;;;;;5057615;28;20072;-64
2021/12/15 03:18:49;;;;;;;106.28;31.20;;;;;;;;;;5053865;28;20076;-64
2021/12/15 03:21:25;;;;;;;88.50;30.33;;;;;;;;;;5057741;28;20106;-63
2021/12/15 03:23:56;;;;;;;104.00;31.75;;;;;;;;;;5052288;28;20041;-64
2021/12/15 03:26:29;;;;;;;95.65;30.75;;;;;;;;;;5055717;28;20406;-64
2021/12/15 03:34:41;;;;;;;89.53;30.27;;;;;;;;;;5063519;28;20139;-64
2021/12/15 03:37:26;;;;;;;98.20;32.30;;;;;;;;;;5073433;28;20510;-64
2021/12/15 03:39:54;;;;;;;111.93;33.53;;;;;;;;;;5073503;28;20041;-64
2021/12/15 03:42:24;;;;;;;115.35;34.55;;;;;;;;;;5052319;28;20461;-64
2021/12/15 03:44:51;;;;;;;111.35;32.90;;;;;;;;;;5054861;28;20064;-64
2021/12/15 03:47:20;;;;;;;101.68;32.92;;;;;;;;;;5053096;28;20087;-64
2021/12/15 03:49:46;;;;;;;110.10;33.63;;;;;;;;;;5053156;28;20505;-64
2021/12/15 03:52:12;;;;;;;110.47;35.55;;;;;;;;;;5054380;28;20075;-64
2021/12/15 03:54:38;;;;;;;116.07;35.67;;;;;;;;;;5052063;28;20483;-64
2021/12/15 03:57:05;;;;;;;115.88;36.88;;;;;;;;;;5051096;28;20083;-64
2021/12/15 03:59:33;;;;;;;118.07;34.90;;;;;;;;;;5066199;28;20040;-64
2021/12/15 04:01:59;;;;;;;106.28;34.90;;;;;;;;;;5058694;28;20033;-63
2021/12/15 04:04:25;;;;;;;109.13;36.22;;;;;;;;;;5043268;28;20533;-64
2021/12/15 04:06:52;;;;;;;121.53;37.00;;;;;;;;;;5050383;28;20025;-64
2021/12/15 04:09:18;;;;;;;112.05;35.15;;;;;;;;;;5060109;28;20041;-64
2021/12/15 04:11:45;;;;;;;123.72;36.90;;;;;;;;;;5051365;28;20175;-64
2021/12/15 04:14:18;;;;;;;117.55;35.53;;;;;;;;;;5054154;28;20044;-64
2021/12/15 04:16:57;;;;;;;110.25;36.25;;;;;;;;;;5051003;28;20041;-64
2021/12/15 04:19:23;;;;;;;111.47;37.30;;;;;;;;;;5052645;28;20049;-64
2021/12/15 04:21:49;;;;;;;111.53;36.47;;;;;;;;;;5055291;28;20024;-64
2021/12/15 04:24:16;;;;;;;109.72;35.92;;;;;;;;;;5071074;28;20400;-64
2021/12/15 04:26:44;;;;;;;111.78;36.15;;;;;;;;;;5058188;28;20048;-64
2021/12/15 04:29:10;;;;;;;107.15;35.88;;;;;;;;;;5057611;28;20550;-64
2021/12/15 04:31:45;;;;;;;103.07;35.55;;;;;;;;;;5065234;28;20123;-64
2021/12/15 04:34:12;;;;;;;111.15;36.88;;;;;;;;;;5051164;28;20048;-64
2021/12/15 04:36:42;;;;;;;119.13;39.53;;;;;;;;;;5051855;28;20048;-64
2021/12/15 04:39:10;;;;;;;111.38;38.53;;;;;;;;;;5053417;28;20037;-64
2021/12/15 04:41:36;;;;;;;104.85;36.35;;;;;;;;;;5062803;28;20075;-64
2021/12/15 04:44:09;;;;;;;101.47;36.10;;;;;;;;;;5066101;28;20498;-64
2021/12/15 04:46:36;;;;;;;109.35;37.50;;;;;;;;;;5059050;28;20045;-64
2021/12/15 04:49:04;;;;;;;115.55;39.70;;;;;;;;;;5051826;28;20071;-64
2021/12/15 04:51:30;;;;;;;114.30;39.15;;;;;;;;;;5052926;28;20129;-64
2021/12/15 04:53:57;;;;;;;117.82;40.00;;;;;;;;;;5072085;28;20048;-64
2021/12/15 04:56:25;;;;;;;117.28;41.38;;;;;;;;;;5052465;28;20461;-64
2021/12/15 04:58:51;;;;;;;116.03;39.97;;;;;;;;;;5056639;28;20540;-64
2021/12/15 05:01:17;;;;;;;107.65;38.13;;;;;;;;;;5046325;28;20037;-64
2021/12/15 05:03:43;;;;;;;126.47;40.70;;;;;;;;;;5062368;28;20039;-64
2021/12/15 05:06:10;;;;;;;121.22;40.88;;;;;;;;;;5069992;28;20045;-64
2021/12/15 05:08:37;;;;;;;116.63;41.13;;;;;;;;;;5069188;28;20048;-64
2021/12/15 05:11:04;;;;;;;114.88;41.40;;;;;;;;;;5057369;28;20045;-64
2021/12/15 05:13:30;;;;;;;113.22;42.05;;;;;;;;;;5053778;28;20041;-64
2021/12/15 05:15:56;;;;;;;121.75;41.15;;;;;;;;;;5049764;28;20076;-64
2021/12/15 05:18:22;;;;;;;126.85;42.05;;;;;;;;;;5051687;28;20052;-64
2021/12/15 05:20:51;;;;;;;109.05;40.00;;;;;;;;;;5054767;28;20494;-64
2021/12/15 05:23:18;;;;;;;115.05;39.67;;;;;;;;;;5045148;28;20036;-64
2021/12/15 05:25:45;;;;;;;115.38;42.35;;;;;;;;;;5065230;28;20068;-64
2021/12/15 05:28:11;;;;;;;108.20;40.65;;;;;;;;;;5054372;28;20041;-64
2021/12/15 05:30:37;;;;;;;107.85;41.80;;;;;;;;;;5050863;28;20438;-64
2021/12/15 05:33:03;;;;;;;114.22;43.30;;;;;;;;;;5056463;28;20120;-64
2021/12/15 05:35:30;;;;;;;111.03;40.95;;;;;;;;;;5051470;28;20044;-64
2021/12/15 05:37:57;;;;;;;108.88;41.80;;;;;;;;;;5055852;28;20449;-64
2021/12/15 05:40:24;;;;;;;114.45;42.58;;;;;;;;;;5050652;28;20041;-64
2021/12/15 05:42:50;;;;;;;121.93;44.05;;;;;;;;;;5058606;28;20544;-64
2021/12/15 05:45:16;;;;;;;113.43;43.28;;;;;;;;;;5054331;28;20072;-64
2021/12/15 05:47:43;;;;;;;118.22;43.53;;;;;;;;;;5052187;28;20064;-64
2021/12/15 05:50:11;;;;;;;113.30;43.08;;;;;;;;;;5053207;28;20083;-64
2021/12/15 05:52:38;;;;;;;110.38;42.65;;;;;;;;;;5047051;28;20406;-64
2021/12/15 05:55:06;;;;;;;113.18;43.70;;;;;;;;;;5064866;28;20109;-64
2021/12/15 05:57:32;;;;;;;106.78;42.38;;;;;;;;;;5058618;28;20119;-64
2021/12/15 05:59:58;;;;;;;112.88;41.08;;;;;;;;;;5051070;28;20434;-64
2021/12/15 06:02:24;;;;;;;112.35;43.08;;;;;;;;;;5051018;28;20061;-64
2021/12/15 06:04:50;;;;;;;113.05;43.95;;;;;;;;;;5054628;28;20087;-64
2021/12/15 06:07:16;;;;;;;114.05;43.40;;;;;;;;;;5050752;28;20040;-64
2021/12/15 06:09:42;;;;;;;108.65;41.65;;;;;;;;;;5067646;28;20033;-64
2021/12/15 06:12:09;;;;;;;112.95;42.42;;;;;;;;;;5049757;28;20049;-64
2021/12/15 06:14:35;;;;;;;118.40;42.63;;;;;;;;;;5050854;28;20533;-64
2021/12/15 06:17:03;;;;;;;113.72;42.67;;;;;;;;;;5053445;28;20044;-64
2021/12/15 06:19:30;;;;;;;109.78;43.63;;;;;;;;;;5055990;28;20384;-64
2021/12/15 06:21:56;;;;;;;116.65;42.38;;;;;;;;;;5051790;28;20467;-64
2021/12/15 06:24:22;;;;;;;107.30;43.25;;;;;;;;;;5050927;28;20044;-64
2021/12/15 06:26:49;;;;;;;116.40;44.20;;;;;;;;;;5050864;28;20037;-64
2021/12/15 06:29:15;;;;;;;97.97;38.63;;;;;;;;;;5053370;28;20466;-64
2021/12/15 06:31:41;;;;;;;113.93;42.33;;;;;;;;;;5055418;28;20041;-64
2021/12/15 06:34:07;;;;;;;109.10;41.88;;;;;;;;;;5049759;28;20037;-64
2021/12/15 06:36:33;;;;;;;114.57;42.95;;;;;;;;;;5054846;28;20041;-64
2021/12/15 06:39:00;;;;;;;114.63;42.92;;;;;;;;;;5053521;28;20044;-64
2021/12/15 06:41:26;;;;;;;109.60;42.03;;;;;;;;;;5053980;28;20094;-64
2021/12/15 06:43:56;;;;;;;114.20;43.60;;;;;;;;;;5054647;28;20127;-64
2021/12/15 07:00:06;;;;;;;106.07;40.70;;;;;;;;;;5060377;28;20513;-64
2021/12/15 07:02:32;;;;;;;111.75;43.00;;;;;;;;;;5053749;28;20044;-64
2021/12/15 07:04:58;;;;;;;108.88;41.05;;;;;;;;;;5052637;28;20114;-64
2021/12/15 07:07:24;;;;;;;114.50;42.63;;;;;;;;;;5055497;28;20033;-64
2021/12/15 07:09:50;;;;;;;109.45;41.67;;;;;;;;;;5064827;28;20041;-64
2021/12/15 07:12:16;;;;;;;108.53;41.90;;;;;;;;;;5057103;28;20049;-64
2021/12/15 07:14:43;;;;;;;110.60;43.53;;;;;;;;;;5071400;28;20493;-64
2021/12/15 07:17:15;;;;;;;115.78;42.35;;;;;;;;;;5070626;28;20043;-64
2021/12/15 07:24:55;;;;;;;111.88;42.13;;;;;;;;;;5070591;28;20515;-64
2021/12/15 07:27:21;;;;;;;106.25;42.97;;;;;;;;;;5065770;28;20033;-64
2021/12/15 07:29:47;;;;;;;106.28;40.38;;;;;;;;;;5049860;28;20398;-64
2021/12/15 07:32:13;;;;;;;113.90;41.78;;;;;;;;;;5046679;28;20094;-64
2021/12/15 07:34:39;;;;;;;100.85;38.92;;;;;;;;;;5053667;28;20049;-65
2021/12/15 07:37:05;;;;;;;103.15;38.78;;;;;;;;;;5049232;28;20041;-64
2021/12/15 07:39:31;;;;;;;104.75;40.30;;;;;;;;;;5048658;28;20510;-64
2021/12/15 07:42:07;;;;;;;116.38;41.40;;;;;;;;;;5051699;28;20064;-64
2021/12/15 07:44:33;;;;;;;102.63;39.22;;;;;;;;;;5053139;28;20124;-64
2021/12/15 07:46:59;;;;;;;115.13;40.75;;;;;;;;;;5046376;28;20106;-64
2021/12/15 07:49:26;;;;;;;109.80;40.65;;;;;;;;;;5052814;28;20036;-63
2021/12/15 07:51:59;;;;;;;103.10;39.65;;;;;;;;;;5051627;28;20126;-64
2021/12/15 07:54:26;;;;;;;112.50;40.42;;;;;;;;;;5052956;28;20049;-64
2021/12/15 07:56:52;;;;;;;108.78;40.15;;;;;;;;;;5052408;28;20167;-63
2021/12/15 07:59:18;;;;;;;110.85;41.10;;;;;;;;;;5051206;28;20122;-64
2021/12/15 08:01:44;;;;;;;112.03;40.75;;;;;;;;;;5052029;28;20084;-64
2021/12/15 08:04:10;;;;;;;98.78;37.97;;;;;;;;;;5052901;28;20037;-64
2021/12/15 08:06:36;;;;;;;101.45;39.15;;;;;;;;;;5051873;28;20059;-64
2021/12/15 08:09:04;;;;;;;107.45;40.42;;;;;;;;;;5051582;28;20049;-64
2021/12/15 08:11:30;;;;;;;108.63;39.92;;;;;;;;;;5050758;28;20120;-64
2021/12/15 08:13:57;;;;;;;91.90;37.15;;;;;;;;;;5049304;28;20036;-64
2021/12/15 08:16:23;;;;;;;104.97;38.80;;;;;;;;;;5041158;28;20463;-64
2021/12/15 08:18:49;;;;;;;108.60;40.55;;;;;;;;;;5051976;28;20515;-64
2021/12/15 08:21:15;;;;;;;103.78;39.75;;;;;;;;;;5052598;28;20103;-64
2021/12/15 08:23:41;;;;;;;108.80;40.10;;;;;;;;;;5050963;28;20098;-64
2021/12/15 08:26:07;;;;;;;102.47;38.50;;;;;;;;;;5052379;28;20086;-64
2021/12/15 08:28:34;;;;;;;104.55;40.05;;;;;;;;;;5051998;28;20127;-64
2021/12/15 08:31:00;;;;;;;107.47;40.88;;;;;;;;;;5052148;28;20079;-64
2021/12/15 08:33:27;;;;;;;107.82;40.60;;;;;;;;;;5031455;28;20049;-63
2021/12/15 08:35:56;;;;;;;105.13;37.35;;;;;;;;;;5038656;28;20044;-64
2021/12/15 08:38:23;;;;;;;107.80;39.55;;;;;;;;;;5051575;28;20045;-63
2021/12/15 08:40:51;;;;;;;109.00;41.22;;;;;;;;;;5051592;28;20037;-64
2021/12/15 08:43:17;;;;;;;101.00;40.38;;;;;;;;;;5051045;28;20041;-64
2021/12/15 08:45:52;;;;;;;95.28;36.97;;;;;;;;;;5049654;28;20071;-64
2021/12/15 08:48:18;;;;;;;95.55;36.80;;;;;;;;;;5048576;28;20078;-64
2021/12/15 08:50:44;;;;;;;108.90;40.60;;;;;;;;;;5050610;28;20437;-64
2021/12/15 08:53:11;;;;;;;102.03;39.17;;;;;;;;;;5050000;28;20594;-64
2021/12/15 08:55:39;;;;;;;107.15;39.65;;;;;;;;;;5048935;28;20487;-64
2021/12/15 08:58:07;;;;;;;108.93;38.50;;;;;;;;;;5052680;28;20119;-65
2021/12/15 09:00:33;;;;;;;100.13;38.13;;;;;;;;;;5051757;28;20037;-63
2021/12/15 09:02:59;;;;;;;105.32;38.78;;;;;;;;;;5048086;28;20045;-64
2021/12/15 09:05:25;;;;;;;98.28;37.42;;;;;;;;;;5062716;22;20060;-66
2021/12/15 09:07:53;;;;;;;103.78;37.42;;;;;;;;;;5051467;28;20524;-66
2021/12/15 09:10:20;;;;;;;100.80;38.53;;;;;;;;;;5050693;28;20108;-66
2021/12/15 09:12:46;;;;;;;99.03;35.78;;;;;;;;;;5050417;28;20044;-66
2021/12/15 09:15:12;;;;;;;88.32;34.63;;;;;;;;;;5048437;28;20394;-66
2021/12/15 09:17:38;;;;;;;102.07;37.28;;;;;;;;;;5046466;28;20045;-66
2021/12/15 09:20:06;;;;;;;90.78;36.38;;;;;;;;;;5041948;28;20403;-66
2021/12/15 09:22:32;;;;;;;90.57;36.13;;;;;;;;;;5046872;28;20064;-66
2021/12/15 09:24:58;;;;;;;91.30;36.47;;;;;;;;;;5051414;28;20036;-66
2021/12/15 09:27:24;;;;;;;90.75;36.92;;;;;;;;;;5050397;28;20403;-66
2021/12/15 09:29:50;;;;;;;92.68;35.15;;;;;;;;;;5051528;28;20044;-66
2021/12/15 09:32:16;;;;;;;86.72;36.90;;;;;;;;;;5045614;28;20406;-67
2021/12/15 09:34:42;;;;;;;95.82;36.90;;;;;;;;;;5051159;28;20537;-66
2021/12/15 09:37:09;;;;;;;90.35;36.88;;;;;;;;;;5048759;28;20126;-65
2021/12/15 09:39:36;;;;;;;91.35;35.88;;;;;;;;;;5049814;28;20449;-66
2021/12/15 09:42:03;;;;;;;88.00;35.08;;;;;;;;;;5050962;28;20029;-66
2021/12/15 09:44:29;;;;;;;86.97;33.90;;;;;;;;;;5051491;28;20342;-66
2021/12/15 09:47:17;;;;;;;88.68;34.08;;;;;;;;;;5052801;28;20040;-66
2021/12/15 10:19:24;;;;;;;85.22;33.33;;;;;;;;;;5053464;28;20060;-65
2021/12/15 10:22:02;;;;;;;83.53;33.47;;;;;;;;;;5050871;28;20094;-65
2021/12/15 10:24:34;;;;;;;90.90;33.45;;;;;;;;;;5047418;28;20356;-65
2021/12/15 10:27:01;;;;;;;81.82;32.92;;;;;;;;;;5049133;28;20394;-66
2021/12/15 10:29:27;;;;;;;86.50;33.83;;;;;;;;;;5041388;28;20041;-66
2021/12/15 10:32:01;;;;;;;80.45;32.00;;;;;;;;;;5051975;28;20033;-66
2021/12/15 10:34:28;;;;;;;89.82;34.00;;;;;;;;;;5044027;28;20055;-66
2021/12/15 10:36:54;;;;;;;81.72;33.90;;;;;;;;;;5051681;28;20029;-65
2021/12/15 10:39:22;;;;;;;87.78;33.45;;;;;;;;;;5045310;28;20067;-65
2021/12/15 10:41:52;;;;;;;85.90;32.03;;;;;;;;;;5053033;28;20043;-65
2021/12/15 10:44:22;;;;;;;80.50;31.25;;;;;;;;;;5050187;28;20090;-65
2021/12/15 10:46:53;;;;;;;75.88;29.33;;;;;;;;;;5049402;28;20049;-65
2021/12/15 10:49:21;;;;;;;69.38;29.80;;;;;;;;;;5051421;28;20138;-65
2021/12/15 10:51:49;;;;;;;71.68;29.20;;;;;;;;;;5044987;28;20479;-65
2021/12/15 10:54:17;;;;;;;70.43;30.10;;;;;;;;;;5049914;28;20554;-65
2021/12/15 10:56:52;;;;;;;60.88;27.15;;;;;;;;;;5053961;28;20080;-65
2021/12/15 10:59:18;;;;;;;63.88;27.55;;;;;;;;;;5052821;28;20037;-65
2021/12/15 11:01:56;;;;;;;55.67;25.58;;;;;;;;;;5051329;28;20037;-65
2021/12/15 11:04:25;;;;;;;49.72;23.30;;;;;;;;;;5044583;28;20037;-65
2021/12/15 11:07:06;;;;;;;51.25;24.33;;;;;;;;;;5047868;28;20043;-65
2021/12/15 11:09:32;;;;;;;;;;;;;;;;;;5050274;28;20087;-66
2021/12/15 11:12:01;;;;;;;46.30;22.45;;;;;;;;;;5045807;28;19916;-65
2021/12/15 11:14:29;;;;;;;52.80;22.67;;;;;;;;;;5042554;28;20536;-66
2021/12/15 11:17:12;;;;;;;47.03;21.40;;;;;;;;;;5048647;28;20060;-65
2021/12/15 11:19:47;;;;;;;49.80;23.13;;;;;;;;;;5047773;28;20033;-66
2021/12/15 11:22:31;;;;;;;55.63;23.75;;;;;;;;;;5047336;28;20037;-65
2021/12/15 11:24:58;;;;;;;46.22;20.80;;;;;;;;;;5049447;28;20491;-65
2021/12/15 11:27:24;;;;;;;48.33;22.50;;;;;;;;;;5046073;28;20578;-66
2021/12/15 11:29:50;;;;;;;51.17;22.38;;;;;;;;;;5048516;28;20148;-65
2021/12/15 11:32:35;;;;;;;46.30;22.08;;;;;;;;;;5051245;28;20119;-65
2021/12/15 11:35:17;;;;;;;57.47;23.77;;;;;;;;;;5037461;28;20058;-66
2021/12/15 11:37:48;;;;;;;50.10;23.20;;;;;;;;;;5040589;28;20218;-66
2021/12/15 11:40:16;;;;;;;43.00;20.70;;;;;;;;;;5048275;28;20041;-65
2021/12/15 11:42:42;;;;;;;45.38;20.60;;;;;;;;;;5048432;28;20116;-65
2021/12/15 11:45:10;;;;;;;41.25;20.55;;;;;;;;;;5051817;28;20494;-65
2021/12/15 11:47:37;;;;;;;43.60;19.85;;;;;;;;;;5052492;28;20037;-65
2021/12/15 11:50:08;;;;;;;50.00;22.73;;;;;;;;;;5051970;28;20139;-66
2021/12/15 11:52:38;;;;;;;48.45;23.52;;;;;;;;;;5051553;28;20040;-65
2021/12/15 11:55:05;;;;;;;48.35;22.60;;;;;;;;;;5036919;28;20495;-65
2021/12/15 11:57:31;;;;;;;46.05;21.17;;;;;;;;;;5046416;28;20042;-65
2021/12/15 12:00:07;;;;;;;46.83;22.08;;;;;;;;;;5048548;28;20115;-65
2021/12/15 12:02:37;;;;;;;45.33;22.13;;;;;;;;;;5047877;28;20128;-65
2021/12/15 12:05:09;;;;;;;50.72;22.70;;;;;;;;;;5040890;28;20048;-65
2021/12/15 12:07:37;;;;;;;45.03;21.08;;;;;;;;;;5047610;28;20060;-65
2021/12/15 12:10:10;;;;;;;46.60;22.33;;;;;;;;;;5043319;28;20047;-65
2021/12/15 12:12:40;;;;;;;44.10;20.13;;;;;;;;;;5047206;28;20036;-65
2021/12/15 12:15:14;;;;;;;40.85;20.80;;;;;;;;;;5049856;28;20521;-65
2021/12/15 12:17:42;;;;;;;41.42;19.92;;;;;;;;;;5037010;28;20507;-65
2021/12/15 12:20:13;;;;;;;43.58;19.95;;;;;;;;;;5046790;28;20052;-66
2021/12/15 12:22:40;;;;;;;40.72;19.45;;;;;;;;;;5049528;28;20048;-66
2021/12/15 12:25:10;;;;;;;38.40;19.95;;;;;;;;;;5049835;28;20116;-65
2021/12/15 12:27:37;;;;;;;42.25;19.50;;;;;;;;;;5051409;28;20048;-65
2021/12/15 12:30:06;;;;;;;39.53;19.30;;;;;;;;;;5044043;28;20453;-65
2021/12/15 12:32:32;;;;;;;35.58;17.35;;;;;;;;;;5041230;28;20075;-65
2021/12/15 12:34:59;;;;;;;37.60;17.90;;;;;;;;;;5048429;28;20052;-66
2021/12/15 12:37:24;;;;;;;38.05;17.67;;;;;;;;;;5043314;28;20045;-65
2021/12/15 12:39:56;;;;;;;38.60;17.33;;;;;;;;;;5049835;28;20332;-65
2021/12/15 12:42:34;;;;;;;34.50;16.85;;;;;;;;;;5050145;28;20048;-66
2021/12/15 12:45:15;;;;;;;33.50;16.83;;;;;;;;;;5046238;28;20037;-66
2021/12/15 12:47:58;;;;;;;35.13;16.95;;;;;;;;;;5048779;28;20044;-66
2021/12/15 13:01:17;;;;;;;36.88;16.23;;;;;;;;;;5050976;28;20049;-66
2021/12/15 13:03:47;;;;;;;31.50;15.30;;;;;;;;;;5031888;28;20483;-66
2021/12/15 13:06:18;;;;;;;31.48;15.98;;;;;;;;;;5048091;28;20170;-66
2021/12/15 13:08:47;;;;;;;34.08;15.38;;;;;;;;;;5043897;28;20041;-66
2021/12/15 13:11:17;;;;;;;33.88;16.23;;;;;;;;;;5041972;28;20030;-66
2021/12/15 13:14:04;;;;;;;35.40;16.83;;;;;;;;;;5055627;28;20044;-66
2021/12/15 13:16:49;;;;;;;34.75;16.83;;;;;;;;;;5053630;28;20525;-66
2021/12/15 13:19:21;;;;;;;31.67;16.30;;;;;;;;;;5045817;28;20039;-66
2021/12/15 13:21:50;;;;;;;29.17;15.55;;;;;;;;;;5043323;28;20094;-65
2021/12/15 13:28:41;;;;;;;34.85;15.10;;;;;;;;;;5043476;28;20407;-65
2021/12/15 13:30:06;;;;;;;29.90;15.88;;;;;;;;;;5042876;28;20091;-65
2021/12/15 13:32:37;;;;;;;34.40;16.08;;;;;;;;;;5048072;28;20116;-65
2021/12/15 13:35:03;;;;;;;;;;;;;;;;;;5035246;28;20037;-66
2021/12/15 13:37:47;;;;;;;34.85;16.75;;;;;;;;;;5049524;28;19920;-65
2021/12/15 13:40:13;;;;;;;33.95;16.00;;;;;;;;;;5048646;28;20033;-65
2021/12/15 13:42:51;;;;;;;32.67;16.55;;;;;;;;;;5050783;28;20068;-66
2021/12/15 13:45:28;;;;;;;30.00;14.95;;;;;;;;;;5030417;28;20057;-65
2021/12/15 13:47:54;;;;;;;24.02;12.98;;;;;;;;;;5046439;28;20040;-66
2021/12/15 13:50:21;;;;;;;28.10;13.80;;;;;;;;;;5045808;28;20056;-65
2021/12/15 13:52:53;;;;;;;21.70;11.57;;;;;;;;;;5049374;28;20037;-65
2021/12/15 13:55:30;;;;;;;23.77;11.63;;;;;;;;;;5047394;28;20071;-66
2021/12/15 13:58:01;;;;;;;21.65;11.70;;;;;;;;;;5041717;28;20048;-64
2021/12/15 14:00:29;;;;;;;14.90;7.70;;;;;;;;;;5043691;28;20042;-67
2021/12/15 14:02:58;;;;;;;16.45;7.25;;;;;;;;;;5046499;28;20037;-66
2021/12/15 14:05:31;;;;;;;13.45;6.93;;;;;;;;;;5051276;22;20949;-66
2021/12/15 14:07:57;;;;;;;13.45;6.35;;;;;;;;;;5050107;28;20041;-66
2021/12/15 14:10:24;;;;;;;14.45;5.95;;;;;;;;;;5051002;28;20053;-65
2021/12/15 14:12:54;;;;;;;16.33;6.25;;;;;;;;;;5049505;28;20402;-65
2021/12/15 14:15:40;;;;;;;12.18;6.30;;;;;;;;;;5050958;28;20072;-65
2021/12/15 14:18:11;;;;;;;13.02;6.97;;;;;;;;;;5051387;28;20081;-65
2021/12/15 14:20:37;;;;;;;;;;;;;;;;;;5066418;22;20075;-75
2021/12/15 14:23:12;;;;;;;14.80;7.35;;;;;;;;;;5050984;28;20278;-75
2021/12/15 14:25:38;;;;;;;16.73;8.05;;;;;;;;;;5050754;28;20414;-75
2021/12/15 14:28:09;;;;;;;14.48;6.85;;;;;;;;;;5051209;28;20037;-75
2021/12/15 14:30:35;;;;;;;13.43;5.03;;;;;;;;;;5065704;28;20051;-75
2021/12/15 14:33:00;;;;;;;11.32;4.43;;;;;;;;;;5070938;28;20327;-75
2021/12/15 14:35:26;;;;;;;7.00;3.92;;;;;;;;;;5070804;28;20040;-75
2021/12/15 14:37:52;;;;;;;10.15;3.90;;;;;;;;;;5069210;28;20047;-74
2021/12/15 14:40:22;;;;;;;7.63;4.00;;;;;;;;;;5065673;28;20585;-74
2021/12/15 14:42:48;;;;;;;8.52;3.80;;;;;;;;;;5050874;28;20566;-75
2021/12/15 14:45:15;;;;;;;8.02;3.55;;;;;;;;;;5050759;28;20163;-74
2021/12/15 14:47:43;;;;;;;10.50;4.28;;;;;;;;;;5053447;28;20041;-74
2021/12/15 14:50:13;;;;;;;9.18;3.80;;;;;;;;;;5054171;28;20041;-74
2021/12/15 14:52:41;;;;;;;11.93;4.43;;;;;;;;;;5066454;28;20123;-74
2021/12/15 14:55:16;;;;;;;12.60;4.38;;;;;;;;;;5060718;28;20121;-75
2021/12/15 14:57:42;;;;;;;8.30;4.07;;;;;;;;;;5062860;28;20048;-75
2021/12/15 15:00:11;;;;;;;7.97;3.40;;;;;;;;;;5054264;28;20041;-74
2021/12/15 15:02:39;;;;;;;9.82;3.75;;;;;;;;;;5053843;28;20040;-74
2021/12/15 15:05:07;;;;;;;7.88;3.45;;;;;;;;;;5058949;28;20047;-74
2021/12/15 15:07:35;;;;;;;9.65;3.80;;;;;;;;;;5071217;28;20044;-74
2021/12/15 15:10:02;;;;;;;7.03;3.60;;;;;;;;;;5056729;28;20041;-75
2021/12/15 15:12:30;;;;;;;9.07;3.58;;;;;;;;;;5052740;28;20036;-75
2021/12/15 15:14:59;;;;;;;4.32;2.58;;;;;;;;;;5054227;28;20514;-74
2021/12/15 15:17:39;;;;;;;5.90;2.03;;;;;;;;;;5051187;28;20041;-74
2021/12/15 15:20:16;;;;;;;5.10;2.45;;;;;;;;;;5054492;28;20490;-74
2021/12/15 15:22:44;;;;;;;3.58;1.77;;;;;;;;;;5060096;28;20036;-74
2021/12/15 15:25:11;;;;;;;5.78;1.98;;;;;;;;;;5057702;28;20048;-74
2021/12/15 15:27:39;;;;;;;5.68;1.77;;;;;;;;;;5052155;28;20492;-74
2021/12/15 15:30:07;;;;;;;4.85;1.85;;;;;;;;;;5065291;28;20093;-74
2021/12/15 15:32:35;;;;;;;5.20;1.45;;;;;;;;;;5047939;28;20040;-74
2021/12/15 15:35:27;;;;;;;5.40;2.00;;;;;;;;;;5048910;28;20079;-72
2021/12/15 15:37:55;;;;;;;5.10;1.50;;;;;;;;;;5040410;28;20060;-74
2021/12/15 15:40:23;;;;;;;4.60;1.38;;;;;;;;;;5052804;28;20040;-74
2021/12/15 15:42:53;;;;;;;5.38;2.10;;;;;;;;;;5052745;28;20048;-74
2021/12/15 15:45:21;;;;;;;3.20;1.58;;;;;;;;;;5046409;28;20283;-74
2021/12/15 15:47:47;;;;;;;4.80;1.80;;;;;;;;;;5046831;28;20599;-74
2021/12/15 15:50:14;;;;;;;9.95;8.98;;;;;;;;;;5039951;28;20128;-74
2021/12/15 15:52:41;;;;;;;5.30;3.63;;;;;;;;;;5045786;28;20051;-74
2021/12/15 15:55:07;;;;;;;7.93;5.90;;;;;;;;;;5051481;28;20574;-74